sensor_id;sensor_type;location;lat;lon;timestamp;temperature;humidity
11908;DHT22;6014;47.690;9.130;2023-04-03T00:02:33;5.70;99.90
11908;DHT22;6014;47.690;9.130;2023-04-03T00:05:02;5.70;99.90
11908;DHT22;6014;47.690;9.130;2023-04-03T00:07:32;5.70;99.90
11908;DHT22;6014;47.690;9.130;2023-04-03T00:10:01;5.60;99.90
11908;DHT22;6014;47.690;9.130;2023-04-03T00:12:29;5.60;99.90
11908;DHT22;6014;47.690;9.130;2023-04-03T00:14:57;5.60;99.90
11908;DHT22;6014;47.690;9.130;2023-04-03T00:17:25;5.70;99.90
11908;DHT22;6014;47.690;9.130;2023-04-03T00:20:00;5.70;99.90
11908;DHT22;6014;47.690;9.130;2023-04-03T00:22:29;5.60;99.90
11908;DHT22;6014;47.690;9.130;2023-04-03T00:24:58;5.60;99.90
11908;DHT22;6014;47.690;9.130;2023-04-03T00:27:26;5.50;99.90
11908;DHT22;6014;47.690;9.130;2023-04-03T00:29:54;5.50;99.90
11908;DHT22;6014;47.690;9.130;2023-04-03T00:32:23;5.50;99.90
11908;DHT22;6014;47.690;9.130;2023-04-03T00:34:54;5.50;99.90
11908;DHT22;6014;47.690;9.130;2023-04-03T00:37:31;5.40;99.90
11908;DHT22;6014;47.690;9.130;2023-04-03T00:40:06;5.30;99.90
11908;DHT22;6014;47.690;9.130;2023-04-03T00:42:36;5.20;99.90
11908;DHT22;6014;47.690;9.130;2023-04-03T00:45:29;5.20;99.90
11908;DHT22;6014;47.690;9.130;2023-04-03T00:48:00;5.10;99.90
11908;DHT22;6014;47.690;9.130;2023-04-03T00:50:29;5.10;99.90
11908;DHT22;6014;47.690;9.130;2023-04-03T00:52:58;5.20;99.90
11908;DHT22;6014;47.690;9.130;2023-04-03T00:55:29;5.10;99.90
11908;DHT22;6014;47.690;9.130;2023-04-03T00:57:58;5.10;99.90
11908;DHT22;6014;47.690;9.130;2023-04-03T01:00:28;5.10;99.90
11908;DHT22;6014;47.690;9.130;2023-04-03T01:03:04;5.10;99.90
11908;DHT22;6014;47.690;9.130;2023-04-03T01:05:33;5.00;99.90
11908;DHT22;6014;47.690;9.130;2023-04-03T01:08:04;4.80;99.90
11908;DHT22;6014;47.690;9.130;2023-04-03T01:10:34;4.80;99.90
11908;DHT22;6014;47.690;9.130;2023-04-03T01:13:17;4.90;99.90
11908;DHT22;6014;47.690;9.130;2023-04-03T01:15:46;4.80;99.90
11908;DHT22;6014;47.690;9.130;2023-04-03T01:18:14;4.70;99.90
11908;DHT22;6014;47.690;9.130;2023-04-03T01:24:01;4.80;99.90
11908;DHT22;6014;47.690;9.130;2023-04-03T01:26:33;4.70;99.90
11908;DHT22;6014;47.690;9.130;2023-04-03T01:29:03;4.70;99.90
11908;DHT22;6014;47.690;9.130;2023-04-03T01:31:48;4.60;99.90
11908;DHT22;6014;47.690;9.130;2023-04-03T01:34:16;4.80;99.90
11908;DHT22;6014;47.690;9.130;2023-04-03T01:36:44;4.70;99.90
11908;DHT22;6014;47.690;9.130;2023-04-03T01:39:12;4.70;99.90
11908;DHT22;6014;47.690;9.130;2023-04-03T01:41:42;4.70;99.90
11908;DHT22;6014;47.690;9.130;2023-04-03T01:44:10;4.60;99.90
11908;DHT22;6014;47.690;9.130;2023-04-03T01:46:41;4.70;99.90
11908;DHT22;6014;47.690;9.130;2023-04-03T01:49:16;4.70;99.90
11908;DHT22;6014;47.690;9.130;2023-04-03T01:51:44;4.80;99.90
11908;DHT22;6014;47.690;9.130;2023-04-03T01:54:12;4.80;99.90
11908;DHT22;6014;47.690;9.130;2023-04-03T01:56:41;4.80;99.90
11908;DHT22;6014;47.690;9.130;2023-04-03T01:59:11;4.80;99.90
11908;DHT22;6014;47.690;9.130;2023-04-03T02:01:42;4.70;99.90
11908;DHT22;6014;47.690;9.130;2023-04-03T02:04:13;4.60;99.90
11908;DHT22;6014;47.690;9.130;2023-04-03T02:06:41;4.70;99.90
11908;DHT22;6014;47.690;9.130;2023-04-03T02:09:17;4.60;99.90
11908;DHT22;6014;47.690;9.130;2023-04-03T02:11:45;4.60;99.90
11908;DHT22;6014;47.690;9.130;2023-04-03T02:14:13;4.60;99.90
11908;DHT22;6014;47.690;9.130;2023-04-03T02:16:42;4.50;99.90
11908;DHT22;6014;47.690;9.130;2023-04-03T02:19:11;4.40;99.90
11908;DHT22;6014;47.690;9.130;2023-04-03T02:21:39;4.40;99.90
11908;DHT22;6014;47.690;9.130;2023-04-03T02:24:09;4.40;99.90
11908;DHT22;6014;47.690;9.130;2023-04-03T02:26:38;4.30;99.90
11908;DHT22;6014;47.690;9.130;2023-04-03T02:29:06;4.20;99.90
11908;DHT22;6014;47.690;9.130;2023-04-03T02:31:34;4.20;99.90
11908;DHT22;6014;47.690;9.130;2023-04-03T02:34:04;4.10;99.90
11908;DHT22;6014;47.690;9.130;2023-04-03T02:36:32;4.10;99.90
11908;DHT22;6014;47.690;9.130;2023-04-03T02:39:00;4.10;99.90
11908;DHT22;6014;47.690;9.130;2023-04-03T02:41:28;4.10;99.90
11908;DHT22;6014;47.690;9.130;2023-04-03T02:44:01;4.00;99.90
11908;DHT22;6014;47.690;9.130;2023-04-03T02:46:30;4.00;99.90
11908;DHT22;6014;47.690;9.130;2023-04-03T02:48:59;4.00;99.90
11908;DHT22;6014;47.690;9.130;2023-04-03T02:51:29;4.00;99.90
11908;DHT22;6014;47.690;9.130;2023-04-03T02:54:04;3.90;99.90
11908;DHT22;6014;47.690;9.130;2023-04-03T02:56:32;3.90;99.90
11908;DHT22;6014;47.690;9.130;2023-04-03T02:59:00;4.00;99.90
11908;DHT22;6014;47.690;9.130;2023-04-03T03:01:29;3.90;99.90
11908;DHT22;6014;47.690;9.130;2023-04-03T03:04:13;3.90;99.90
11908;DHT22;6014;47.690;9.130;2023-04-03T03:06:42;3.80;99.90
11908;DHT22;6014;47.690;9.130;2023-04-03T03:09:12;3.90;99.90
11908;DHT22;6014;47.690;9.130;2023-04-03T03:11:40;3.80;99.90
11908;DHT22;6014;47.690;9.130;2023-04-03T03:14:15;3.80;99.90
11908;DHT22;6014;47.690;9.130;2023-04-03T03:16:43;3.80;99.90
11908;DHT22;6014;47.690;9.130;2023-04-03T03:19:11;3.90;99.90
11908;DHT22;6014;47.690;9.130;2023-04-03T03:21:49;3.90;99.90
11908;DHT22;6014;47.690;9.130;2023-04-03T03:24:17;3.90;99.90
11908;DHT22;6014;47.690;9.130;2023-04-03T03:26:46;3.80;99.90
11908;DHT22;6014;47.690;9.130;2023-04-03T03:29:14;3.90;99.90
11908;DHT22;6014;47.690;9.130;2023-04-03T03:31:48;3.90;99.90
11908;DHT22;6014;47.690;9.130;2023-04-03T03:34:16;3.90;99.90
11908;DHT22;6014;47.690;9.130;2023-04-03T03:36:45;3.80;99.90
11908;DHT22;6014;47.690;9.130;2023-04-03T03:39:14;3.90;99.90
11908;DHT22;6014;47.690;9.130;2023-04-03T03:41:43;3.90;99.90
11908;DHT22;6014;47.690;9.130;2023-04-03T03:44:13;3.90;99.90
11908;DHT22;6014;47.690;9.130;2023-04-03T03:46:44;3.80;99.90
11908;DHT22;6014;47.690;9.130;2023-04-03T03:49:12;3.80;99.90
11908;DHT22;6014;47.690;9.130;2023-04-03T03:51:40;3.80;99.90
11908;DHT22;6014;47.690;9.130;2023-04-03T03:54:09;3.80;99.90
11908;DHT22;6014;47.690;9.130;2023-04-03T03:56:38;3.80;99.90
11908;DHT22;6014;47.690;9.130;2023-04-03T03:59:07;3.80;99.90
11908;DHT22;6014;47.690;9.130;2023-04-03T04:01:37;3.70;99.90
11908;DHT22;6014;47.690;9.130;2023-04-03T04:04:06;3.70;99.90
11908;DHT22;6014;47.690;9.130;2023-04-03T04:06:34;3.70;99.90
11908;DHT22;6014;47.690;9.130;2023-04-03T04:09:09;3.60;99.90
11908;DHT22;6014;47.690;9.130;2023-04-03T04:11:38;3.70;99.90
11908;DHT22;6014;47.690;9.130;2023-04-03T04:14:07;3.50;99.90
11908;DHT22;6014;47.690;9.130;2023-04-03T04:16:37;3.60;99.90
11908;DHT22;6014;47.690;9.130;2023-04-03T04:19:05;3.50;99.90
11908;DHT22;6014;47.690;9.130;2023-04-03T04:21:34;3.60;99.90
11908;DHT22;6014;47.690;9.130;2023-04-03T04:24:03;3.50;99.90
11908;DHT22;6014;47.690;9.130;2023-04-03T04:26:31;3.50;99.90
11908;DHT22;6014;47.690;9.130;2023-04-03T04:29:00;3.50;99.90
11908;DHT22;6014;47.690;9.130;2023-04-03T04:31:29;3.50;99.90
11908;DHT22;6014;47.690;9.130;2023-04-03T04:33:57;3.50;99.90
11908;DHT22;6014;47.690;9.130;2023-04-03T04:36:25;3.50;99.90
11908;DHT22;6014;47.690;9.130;2023-04-03T04:38:53;3.50;99.90
11908;DHT22;6014;47.690;9.130;2023-04-03T04:41:22;3.50;99.90
11908;DHT22;6014;47.690;9.130;2023-04-03T04:43:51;3.50;99.90
11908;DHT22;6014;47.690;9.130;2023-04-03T04:46:23;3.50;99.90
11908;DHT22;6014;47.690;9.130;2023-04-03T04:49:02;3.50;99.90
11908;DHT22;6014;47.690;9.130;2023-04-03T04:51:32;3.50;99.90
11908;DHT22;6014;47.690;9.130;2023-04-03T04:54:13;3.50;99.90
11908;DHT22;6014;47.690;9.130;2023-04-03T04:56:41;3.60;99.90
11908;DHT22;6014;47.690;9.130;2023-04-03T04:59:09;3.50;99.90
11908;DHT22;6014;47.690;9.130;2023-04-03T05:01:39;3.50;99.90
11908;DHT22;6014;47.690;9.130;2023-04-03T05:04:16;3.40;99.70
11908;DHT22;6014;47.690;9.130;2023-04-03T05:06:44;3.50;99.90
11908;DHT22;6014;47.690;9.130;2023-04-03T05:09:12;3.40;99.90
11908;DHT22;6014;47.690;9.130;2023-04-03T05:11:41;3.50;99.90
11908;DHT22;6014;47.690;9.130;2023-04-03T05:14:10;3.50;99.90
11908;DHT22;6014;47.690;9.130;2023-04-03T05:16:49;3.50;99.90
11908;DHT22;6014;47.690;9.130;2023-04-03T05:19:19;3.50;99.90
11908;DHT22;6014;47.690;9.130;2023-04-03T05:21:47;3.50;99.90
11908;DHT22;6014;47.690;9.130;2023-04-03T05:24:16;3.50;99.40
11908;DHT22;6014;47.690;9.130;2023-04-03T05:26:44;3.60;99.40
11908;DHT22;6014;47.690;9.130;2023-04-03T05:29:12;3.50;99.90
11908;DHT22;6014;47.690;9.130;2023-04-03T05:31:40;3.60;99.90
11908;DHT22;6014;47.690;9.130;2023-04-03T05:34:10;3.50;99.90
11908;DHT22;6014;47.690;9.130;2023-04-03T05:36:38;3.60;99.90
11908;DHT22;6014;47.690;9.130;2023-04-03T05:39:06;3.60;99.90
11908;DHT22;6014;47.690;9.130;2023-04-03T05:41:34;3.60;99.80
11908;DHT22;6014;47.690;9.130;2023-04-03T05:44:02;3.70;99.70
11908;DHT22;6014;47.690;9.130;2023-04-03T05:46:30;3.60;99.90
11908;DHT22;6014;47.690;9.130;2023-04-03T05:48:58;3.70;99.70
11908;DHT22;6014;47.690;9.130;2023-04-03T05:51:32;3.60;99.90
11908;DHT22;6014;47.690;9.130;2023-04-03T05:54:06;3.70;99.50
11908;DHT22;6014;47.690;9.130;2023-04-03T05:56:36;3.70;99.80
11908;DHT22;6014;47.690;9.130;2023-04-03T05:59:33;3.70;98.90
11908;DHT22;6014;47.690;9.130;2023-04-03T06:02:01;3.80;99.90
11908;DHT22;6014;47.690;9.130;2023-04-03T06:04:29;3.90;99.90
11908;DHT22;6014;47.690;9.130;2023-04-03T06:06:59;3.80;99.90
11908;DHT22;6014;47.690;9.130;2023-04-03T06:09:28;3.80;99.50
11908;DHT22;6014;47.690;9.130;2023-04-03T06:11:57;3.90;99.90
11908;DHT22;6014;47.690;9.130;2023-04-03T06:14:26;4.00;99.90
11908;DHT22;6014;47.690;9.130;2023-04-03T06:16:54;3.90;99.90
11908;DHT22;6014;47.690;9.130;2023-04-03T06:19:34;4.10;99.90
11908;DHT22;6014;47.690;9.130;2023-04-03T06:22:03;4.00;98.70
11908;DHT22;6014;47.690;9.130;2023-04-03T06:24:32;4.00;99.90
11908;DHT22;6014;47.690;9.130;2023-04-03T06:27:00;4.00;98.90
11908;DHT22;6014;47.690;9.130;2023-04-03T06:29:28;4.00;99.90
11908;DHT22;6014;47.690;9.130;2023-04-03T06:32:02;4.00;99.10
11908;DHT22;6014;47.690;9.130;2023-04-03T06:34:30;4.10;99.20
11908;DHT22;6014;47.690;9.130;2023-04-03T06:36:58;4.10;99.90
11908;DHT22;6014;47.690;9.130;2023-04-03T06:39:27;4.20;98.70
11908;DHT22;6014;47.690;9.130;2023-04-03T06:41:57;4.30;99.90
11908;DHT22;6014;47.690;9.130;2023-04-03T06:44:26;4.30;99.70
11908;DHT22;6014;47.690;9.130;2023-04-03T06:46:54;4.50;99.90
11908;DHT22;6014;47.690;9.130;2023-04-03T06:49:22;4.40;99.30
11908;DHT22;6014;47.690;9.130;2023-04-03T06:51:50;4.30;99.30
11908;DHT22;6014;47.690;9.130;2023-04-03T06:54:19;4.40;99.30
11908;DHT22;6014;47.690;9.130;2023-04-03T06:56:48;4.40;98.40
11908;DHT22;6014;47.690;9.130;2023-04-03T06:59:17;4.30;99.90
11908;DHT22;6014;47.690;9.130;2023-04-03T07:01:46;4.30;99.90
11908;DHT22;6014;47.690;9.130;2023-04-03T07:04:14;4.30;99.90
11908;DHT22;6014;47.690;9.130;2023-04-03T07:06:42;4.50;99.90
11908;DHT22;6014;47.690;9.130;2023-04-03T07:09:11;4.50;99.90
11908;DHT22;6014;47.690;9.130;2023-04-03T07:11:39;4.50;99.80
11908;DHT22;6014;47.690;9.130;2023-04-03T07:14:10;4.60;99.90
11908;DHT22;6014;47.690;9.130;2023-04-03T07:16:38;4.50;99.80
11908;DHT22;6014;47.690;9.130;2023-04-03T07:19:08;4.50;99.30
11908;DHT22;6014;47.690;9.130;2023-04-03T07:21:43;4.60;99.90
11908;DHT22;6014;47.690;9.130;2023-04-03T07:24:11;4.60;99.90
11908;DHT22;6014;47.690;9.130;2023-04-03T07:26:42;4.60;99.80
11908;DHT22;6014;47.690;9.130;2023-04-03T07:29:13;4.70;99.90
11908;DHT22;6014;47.690;9.130;2023-04-03T07:31:42;4.80;99.90
11908;DHT22;6014;47.690;9.130;2023-04-03T07:34:11;4.60;99.40
11908;DHT22;6014;47.690;9.130;2023-04-03T07:36:40;4.80;99.50
11908;DHT22;6014;47.690;9.130;2023-04-03T07:39:08;4.70;98.90
11908;DHT22;6014;47.690;9.130;2023-04-03T07:41:37;4.80;99.90
11908;DHT22;6014;47.690;9.130;2023-04-03T07:44:05;4.90;99.90
11908;DHT22;6014;47.690;9.130;2023-04-03T07:46:37;4.80;98.90
11908;DHT22;6014;47.690;9.130;2023-04-03T07:49:05;5.00;99.90
11908;DHT22;6014;47.690;9.130;2023-04-03T07:51:34;5.20;99.70
11908;DHT22;6014;47.690;9.130;2023-04-03T07:54:02;5.10;98.90
11908;DHT22;6014;47.690;9.130;2023-04-03T07:56:30;4.90;99.10
11908;DHT22;6014;47.690;9.130;2023-04-03T07:58:58;5.00;99.90
11908;DHT22;6014;47.690;9.130;2023-04-03T08:01:26;4.90;99.90
11908;DHT22;6014;47.690;9.130;2023-04-03T08:03:56;5.10;99.90
11908;DHT22;6014;47.690;9.130;2023-04-03T08:06:24;5.10;99.90
11908;DHT22;6014;47.690;9.130;2023-04-03T08:09:11;5.10;99.90
11908;DHT22;6014;47.690;9.130;2023-04-03T08:11:40;5.20;99.90
11908;DHT22;6014;47.690;9.130;2023-04-03T08:14:08;5.20;99.90
11908;DHT22;6014;47.690;9.130;2023-04-03T08:16:42;5.30;99.90
11908;DHT22;6014;47.690;9.130;2023-04-03T08:19:13;5.40;99.90
11908;DHT22;6014;47.690;9.130;2023-04-03T08:21:55;5.60;99.90
11908;DHT22;6014;47.690;9.130;2023-04-03T08:24:23;5.50;99.90
11908;DHT22;6014;47.690;9.130;2023-04-03T08:26:51;5.40;99.90
11908;DHT22;6014;47.690;9.130;2023-04-03T08:29:20;5.40;99.90
11908;DHT22;6014;47.690;9.130;2023-04-03T08:31:48;5.40;99.90
11908;DHT22;6014;47.690;9.130;2023-04-03T08:34:19;5.40;99.90
11908;DHT22;6014;47.690;9.130;2023-04-03T08:36:47;5.40;99.90
11908;DHT22;6014;47.690;9.130;2023-04-03T08:39:15;5.40;99.90
11908;DHT22;6014;47.690;9.130;2023-04-03T08:41:44;5.60;99.90
11908;DHT22;6014;47.690;9.130;2023-04-03T08:44:17;5.60;99.90
11908;DHT22;6014;47.690;9.130;2023-04-03T08:47:00;5.70;99.90
11908;DHT22;6014;47.690;9.130;2023-04-03T08:49:33;5.80;99.90
11908;DHT22;6014;47.690;9.130;2023-04-03T08:52:08;5.90;99.90
11908;DHT22;6014;47.690;9.130;2023-04-03T08:54:42;5.80;99.70
11908;DHT22;6014;47.690;9.130;2023-04-03T08:57:24;6.10;99.90
11908;DHT22;6014;47.690;9.130;2023-04-03T08:59:54;5.90;99.90
11908;DHT22;6014;47.690;9.130;2023-04-03T09:02:26;6.00;99.90
11908;DHT22;6014;47.690;9.130;2023-04-03T09:04:57;5.80;99.90
11908;DHT22;6014;47.690;9.130;2023-04-03T09:07:33;5.80;99.90
11908;DHT22;6014;47.690;9.130;2023-04-03T09:10:04;5.90;99.90
11908;DHT22;6014;47.690;9.130;2023-04-03T09:12:35;5.80;99.90
11908;DHT22;6014;47.690;9.130;2023-04-03T09:15:12;6.00;99.90
11908;DHT22;6014;47.690;9.130;2023-04-03T09:17:57;5.90;99.90
11908;DHT22;6014;47.690;9.130;2023-04-03T09:20:38;6.00;99.90
11908;DHT22;6014;47.690;9.130;2023-04-03T09:23:14;6.20;99.90
11908;DHT22;6014;47.690;9.130;2023-04-03T09:25:45;6.00;98.60
11908;DHT22;6014;47.690;9.130;2023-04-03T09:28:15;6.00;99.90
11908;DHT22;6014;47.690;9.130;2023-04-03T09:30:43;6.10;99.90
11908;DHT22;6014;47.690;9.130;2023-04-03T09:33:12;6.20;99.90
11908;DHT22;6014;47.690;9.130;2023-04-03T09:35:43;6.20;99.50
11908;DHT22;6014;47.690;9.130;2023-04-03T09:38:17;6.30;98.60
11908;DHT22;6014;47.690;9.130;2023-04-03T09:40:47;6.30;98.10
11908;DHT22;6014;47.690;9.130;2023-04-03T09:43:27;6.50;97.70
11908;DHT22;6014;47.690;9.130;2023-04-03T09:46:15;6.50;97.50
11908;DHT22;6014;47.690;9.130;2023-04-03T09:48:56;6.60;96.40
11908;DHT22;6014;47.690;9.130;2023-04-03T09:51:37;6.60;95.70
11908;DHT22;6014;47.690;9.130;2023-04-03T09:54:33;6.70;94.20
11908;DHT22;6014;47.690;9.130;2023-04-03T09:57:09;6.60;95.90
11908;DHT22;6014;47.690;9.130;2023-04-03T09:59:46;6.80;95.10
11908;DHT22;6014;47.690;9.130;2023-04-03T10:02:32;7.10;94.90
11908;DHT22;6014;47.690;9.130;2023-04-03T10:05:02;7.00;92.20
11908;DHT22;6014;47.690;9.130;2023-04-03T10:07:36;7.00;93.80
11908;DHT22;6014;47.690;9.130;2023-04-03T10:10:17;6.80;94.80
11908;DHT22;6014;47.690;9.130;2023-04-03T10:12:47;6.80;94.80
11908;DHT22;6014;47.690;9.130;2023-04-03T10:15:17;6.90;94.30
11908;DHT22;6014;47.690;9.130;2023-04-03T10:17:53;7.30;93.50
11908;DHT22;6014;47.690;9.130;2023-04-03T10:20:32;7.20;91.10
11908;DHT22;6014;47.690;9.130;2023-04-03T10:23:14;7.20;93.30
11908;DHT22;6014;47.690;9.130;2023-04-03T10:25:48;7.10;94.20
11908;DHT22;6014;47.690;9.130;2023-04-03T10:28:21;7.20;92.60
11908;DHT22;6014;47.690;9.130;2023-04-03T10:30:56;7.00;93.30
11908;DHT22;6014;47.690;9.130;2023-04-03T10:33:39;7.20;91.70
11908;DHT22;6014;47.690;9.130;2023-04-03T10:36:20;7.30;90.90
11908;DHT22;6014;47.690;9.130;2023-04-03T10:38:58;7.10;87.60
11908;DHT22;6014;47.690;9.130;2023-04-03T10:41:38;6.90;90.10
11908;DHT22;6014;47.690;9.130;2023-04-03T10:44:15;7.20;93.70
11908;DHT22;6014;47.690;9.130;2023-04-03T10:46:50;7.20;88.50
11908;DHT22;6014;47.690;9.130;2023-04-03T10:49:29;7.20;87.20
11908;DHT22;6014;47.690;9.130;2023-04-03T10:52:05;7.10;81.70
11908;DHT22;6014;47.690;9.130;2023-04-03T10:54:41;7.10;82.00
11908;DHT22;6014;47.690;9.130;2023-04-03T10:57:11;7.40;80.90
11908;DHT22;6014;47.690;9.130;2023-04-03T10:59:44;7.50;84.20
11908;DHT22;6014;47.690;9.130;2023-04-03T11:02:24;7.80;81.90
11908;DHT22;6014;47.690;9.130;2023-04-03T11:04:59;7.70;78.60
11908;DHT22;6014;47.690;9.130;2023-04-03T11:07:33;7.60;78.80
11908;DHT22;6014;47.690;9.130;2023-04-03T11:10:13;7.50;79.00
11908;DHT22;6014;47.690;9.130;2023-04-03T11:12:46;7.30;76.70
11908;DHT22;6014;47.690;9.130;2023-04-03T11:15:17;7.40;80.10
11908;DHT22;6014;47.690;9.130;2023-04-03T11:17:49;7.60;78.20
11908;DHT22;6014;47.690;9.130;2023-04-03T11:20:23;7.90;80.30
11908;DHT22;6014;47.690;9.130;2023-04-03T11:23:00;7.60;76.60
11908;DHT22;6014;47.690;9.130;2023-04-03T11:25:33;7.40;76.70
11908;DHT22;6014;47.690;9.130;2023-04-03T11:28:04;7.30;76.20
11908;DHT22;6014;47.690;9.130;2023-04-03T11:30:39;7.10;77.80
11908;DHT22;6014;47.690;9.130;2023-04-03T11:33:28;7.20;82.00
11908;DHT22;6014;47.690;9.130;2023-04-03T11:36:02;7.20;79.60
11908;DHT22;6014;47.690;9.130;2023-04-03T11:38:52;7.20;82.50
11908;DHT22;6014;47.690;9.130;2023-04-03T11:41:27;7.30;85.80
11908;DHT22;6014;47.690;9.130;2023-04-03T11:43:58;7.40;84.60
11908;DHT22;6014;47.690;9.130;2023-04-03T11:46:51;7.30;79.50
11908;DHT22;6014;47.690;9.130;2023-04-03T11:49:51;7.10;76.30
11908;DHT22;6014;47.690;9.130;2023-04-03T11:52:55;6.70;80.90
11908;DHT22;6014;47.690;9.130;2023-04-03T11:55:51;6.70;84.40
11908;DHT22;6014;47.690;9.130;2023-04-03T11:58:23;7.10;84.20
11908;DHT22;6014;47.690;9.130;2023-04-03T12:04:07;7.20;78.70
11908;DHT22;6014;47.690;9.130;2023-04-03T12:07:02;7.20;75.80
11908;DHT22;6014;47.690;9.130;2023-04-03T12:12:39;7.50;74.50
11908;DHT22;6014;47.690;9.130;2023-04-03T12:15:41;7.50;74.40
11908;DHT22;6014;47.690;9.130;2023-04-03T12:21:17;7.30;75.40
11908;DHT22;6014;47.690;9.130;2023-04-03T12:24:04;7.30;73.40
11908;DHT22;6014;47.690;9.130;2023-04-03T12:26:37;7.30;70.50
11908;DHT22;6014;47.690;9.130;2023-04-03T12:29:20;7.20;71.50
11908;DHT22;6014;47.690;9.130;2023-04-03T12:31:56;7.40;71.80
11908;DHT22;6014;47.690;9.130;2023-04-03T12:34:44;7.40;66.20
11908;DHT22;6014;47.690;9.130;2023-04-03T12:37:24;7.40;64.90
11908;DHT22;6014;47.690;9.130;2023-04-03T12:40:07;7.40;63.00
11908;DHT22;6014;47.690;9.130;2023-04-03T12:43:00;7.20;61.20
11908;DHT22;6014;47.690;9.130;2023-04-03T12:45:40;7.30;63.20
11908;DHT22;6014;47.690;9.130;2023-04-03T12:48:15;7.40;62.40
11908;DHT22;6014;47.690;9.130;2023-04-03T12:50:46;7.50;63.20
11908;DHT22;6014;47.690;9.130;2023-04-03T12:53:18;7.60;61.60
11908;DHT22;6014;47.690;9.130;2023-04-03T12:55:46;8.00;63.50
11908;DHT22;6014;47.690;9.130;2023-04-03T12:58:16;8.00;59.80
11908;DHT22;6014;47.690;9.130;2023-04-03T13:00:44;7.90;57.00
11908;DHT22;6014;47.690;9.130;2023-04-03T13:03:23;7.80;54.60
11908;DHT22;6014;47.690;9.130;2023-04-03T13:05:56;7.90;53.70
11908;DHT22;6014;47.690;9.130;2023-04-03T13:08:25;7.90;52.20
11908;DHT22;6014;47.690;9.130;2023-04-03T13:10:56;8.00;53.60
11908;DHT22;6014;47.690;9.130;2023-04-03T13:13:26;7.70;51.80
11908;DHT22;6014;47.690;9.130;2023-04-03T13:15:54;7.80;49.70
11908;DHT22;6014;47.690;9.130;2023-04-03T13:18:29;7.70;50.50
11908;DHT22;6014;47.690;9.130;2023-04-03T13:21:01;7.70;50.80
11908;DHT22;6014;47.690;9.130;2023-04-03T13:23:30;8.00;50.50
11908;DHT22;6014;47.690;9.130;2023-04-03T13:25:59;8.20;49.60
11908;DHT22;6014;47.690;9.130;2023-04-03T13:28:31;7.90;47.40
11908;DHT22;6014;47.690;9.130;2023-04-03T13:31:03;7.90;47.50
11908;DHT22;6014;47.690;9.130;2023-04-03T13:33:36;8.10;48.00
11908;DHT22;6014;47.690;9.130;2023-04-03T13:36:08;8.20;48.00
11908;DHT22;6014;47.690;9.130;2023-04-03T13:38:41;8.10;48.10
11908;DHT22;6014;47.690;9.130;2023-04-03T13:41:24;8.20;49.10
11908;DHT22;6014;47.690;9.130;2023-04-03T13:43:52;8.00;47.90
11908;DHT22;6014;47.690;9.130;2023-04-03T13:46:32;8.10;48.60
11908;DHT22;6014;47.690;9.130;2023-04-03T13:49:18;8.20;48.20
11908;DHT22;6014;47.690;9.130;2023-04-03T13:51:46;8.10;50.70
11908;DHT22;6014;47.690;9.130;2023-04-03T13:54:33;8.20;51.40
11908;DHT22;6014;47.690;9.130;2023-04-03T13:57:03;8.40;51.40
11908;DHT22;6014;47.690;9.130;2023-04-03T13:59:32;8.20;50.70
11908;DHT22;6014;47.690;9.130;2023-04-03T14:02:15;8.00;51.00
11908;DHT22;6014;47.690;9.130;2023-04-03T14:04:51;8.00;51.40
11908;DHT22;6014;47.690;9.130;2023-04-03T14:07:23;7.90;51.10
11908;DHT22;6014;47.690;9.130;2023-04-03T14:09:53;7.90;51.90
11908;DHT22;6014;47.690;9.130;2023-04-03T14:12:26;8.00;51.10
11908;DHT22;6014;47.690;9.130;2023-04-03T14:14:59;7.90;51.60
11908;DHT22;6014;47.690;9.130;2023-04-03T14:17:27;7.70;51.90
11908;DHT22;6014;47.690;9.130;2023-04-03T14:19:58;7.80;52.30
11908;DHT22;6014;47.690;9.130;2023-04-03T14:22:29;7.70;55.10
11908;DHT22;6014;47.690;9.130;2023-04-03T14:24:58;7.70;53.00
11908;DHT22;6014;47.690;9.130;2023-04-03T14:27:29;7.60;52.50
11908;DHT22;6014;47.690;9.130;2023-04-03T14:29:59;7.60;52.50
11908;DHT22;6014;47.690;9.130;2023-04-03T14:32:27;7.80;53.40
11908;DHT22;6014;47.690;9.130;2023-04-03T14:34:59;7.80;53.00
11908;DHT22;6014;47.690;9.130;2023-04-03T14:37:29;7.70;52.70
11908;DHT22;6014;47.690;9.130;2023-04-03T14:39:59;7.70;51.40
11908;DHT22;6014;47.690;9.130;2023-04-03T14:42:30;7.30;50.10
11908;DHT22;6014;47.690;9.130;2023-04-03T14:44:58;7.30;51.90
11908;DHT22;6014;47.690;9.130;2023-04-03T14:47:29;7.30;51.40
11908;DHT22;6014;47.690;9.130;2023-04-03T14:50:00;7.30;52.50
11908;DHT22;6014;47.690;9.130;2023-04-03T14:52:30;7.30;55.40
11908;DHT22;6014;47.690;9.130;2023-04-03T14:54:59;7.60;52.90
11908;DHT22;6014;47.690;9.130;2023-04-03T14:57:29;7.30;51.60
11908;DHT22;6014;47.690;9.130;2023-04-03T14:59:58;7.30;51.40
11908;DHT22;6014;47.690;9.130;2023-04-03T15:02:29;7.20;52.00
11908;DHT22;6014;47.690;9.130;2023-04-03T15:05:01;7.20;51.50
11908;DHT22;6014;47.690;9.130;2023-04-03T15:07:34;7.30;52.00
11908;DHT22;6014;47.690;9.130;2023-04-03T15:10:09;7.60;53.70
11908;DHT22;6014;47.690;9.130;2023-04-03T15:12:42;7.40;50.60
11908;DHT22;6014;47.690;9.130;2023-04-03T15:15:12;7.30;50.10
11908;DHT22;6014;47.690;9.130;2023-04-03T15:17:41;7.30;52.00
11908;DHT22;6014;47.690;9.130;2023-04-03T15:20:19;7.40;52.00
11908;DHT22;6014;47.690;9.130;2023-04-03T15:22:47;7.40;51.60
11908;DHT22;6014;47.690;9.130;2023-04-03T15:25:16;7.50;50.90
11908;DHT22;6014;47.690;9.130;2023-04-03T15:27:47;7.50;50.80
11908;DHT22;6014;47.690;9.130;2023-04-03T15:30:18;7.30;51.90
11908;DHT22;6014;47.690;9.130;2023-04-03T15:32:47;7.20;52.50
11908;DHT22;6014;47.690;9.130;2023-04-03T15:35:17;7.00;52.20
11908;DHT22;6014;47.690;9.130;2023-04-03T15:37:51;7.00;54.10
11908;DHT22;6014;47.690;9.130;2023-04-03T15:40:26;7.00;54.70
11908;DHT22;6014;47.690;9.130;2023-04-03T15:42:58;7.00;55.60
11908;DHT22;6014;47.690;9.130;2023-04-03T15:45:29;7.00;56.60
11908;DHT22;6014;47.690;9.130;2023-04-03T15:48:06;7.00;58.70
11908;DHT22;6014;47.690;9.130;2023-04-03T15:50:36;6.90;59.30
11908;DHT22;6014;47.690;9.130;2023-04-03T15:53:17;6.80;59.20
11908;DHT22;6014;47.690;9.130;2023-04-03T15:55:45;6.80;57.70
11908;DHT22;6014;47.690;9.130;2023-04-03T15:58:17;6.80;58.90
11908;DHT22;6014;47.690;9.130;2023-04-03T16:00:55;6.80;58.20
11908;DHT22;6014;47.690;9.130;2023-04-03T16:03:23;6.80;59.80
11908;DHT22;6014;47.690;9.130;2023-04-03T16:05:53;6.80;59.20
11908;DHT22;6014;47.690;9.130;2023-04-03T16:08:27;6.70;58.50
11908;DHT22;6014;47.690;9.130;2023-04-03T16:10:56;6.70;59.50
11908;DHT22;6014;47.690;9.130;2023-04-03T16:13:24;6.70;60.80
11908;DHT22;6014;47.690;9.130;2023-04-03T16:15:52;6.70;60.50
11908;DHT22;6014;47.690;9.130;2023-04-03T16:18:21;6.60;58.40
11908;DHT22;6014;47.690;9.130;2023-04-03T16:20:49;6.70;59.70
11908;DHT22;6014;47.690;9.130;2023-04-03T16:23:18;6.70;59.40
11908;DHT22;6014;47.690;9.130;2023-04-03T16:25:47;6.60;61.50
11908;DHT22;6014;47.690;9.130;2023-04-03T16:31:18;6.50;60.80
11908;DHT22;6014;47.690;9.130;2023-04-03T16:33:46;6.50;63.20
11908;DHT22;6014;47.690;9.130;2023-04-03T16:36:25;6.40;63.20
11908;DHT22;6014;47.690;9.130;2023-04-03T16:38:55;6.40;61.20
11908;DHT22;6014;47.690;9.130;2023-04-03T16:41:23;6.40;60.40
11908;DHT22;6014;47.690;9.130;2023-04-03T16:43:52;6.30;60.60
11908;DHT22;6014;47.690;9.130;2023-04-03T16:46:25;6.30;62.50
11908;DHT22;6014;47.690;9.130;2023-04-03T16:48:57;6.20;64.80
11908;DHT22;6014;47.690;9.130;2023-04-03T16:51:26;6.20;66.50